Accueil
METAR-TAF:

METAR-TAF

Aéroports :

Beauvais, France

Aéroport de Beauvais-Tillé

latitude: 49-28N, longitude: 002-07E, altitude: 109 m

Observation

Le bulletin a été fait il y a 31 minutes, à 06:00 UTC
Vent 10 kt de ouest/sud-ouest
Température 9°C
Humidité 87%
Pression 1017 hPa
Visibilité 10 km ou plus
Ciel couvert à une hauteur de 1700 ft

METAR: LFOB 210600Z AUTO 24010KT 9999 OVC017 09/07 Q1017 TEMPO OVC008

Heure: 07:31 (06:31 UTC)

Prévision

Le bulletin a été fait il y a 1 heure et 31 minutes, à 05:00 UTC
Prévision valable du 21 à 06 UTC au 22 à 06 UTC
Vent 15 kt de sud/sud-ouest
Visibilité 10 km ou plus
Nuages fragmentés à une hauteur de 1300 ft
Ciel couvert à une hauteur de 2500 ft
Temporairement
du 21 à 06 UTC au 21 à 23 UTC
Ciel couvert à une hauteur de 800 ft

TAF: LFOB 210500Z 2106/2206 21015KT 9999 BKN013 OVC025 TEMPO 2106/2123 OVC008

Observations et prévisions météorologiques de plus de 4000 aéroports (messages METAR et TAF).

Les stations disponibles sont représentées par des disques jaunes et rouges sur la carte.

Passer la souris dessus pour voir le nom de la station.

Cliquer dessus pour voir les observations et prévisions météorologiques.

Pour changer de carte: cliquez sur les boutons verts avec une croix noire pour zoomer, sur le bouton vert avec un tiret pour effectuer un zoom arrière, ou sur les flèches vertes pour les cartes adjacentes.


METAR-TAF: